KCLW

Clearwater Airpark

Clearwater, Florida, USA
METAR KCLW 202015Z AUTO 30006KT 10SM SCT034 31/23 A3005 RMK AO2
Observed Flight Rules
Aug-20 @ 20:15 UTC (14 minutes ago) Visual Flight Rules
Wind Visibility Clouds
300° at 6 knots 10 miles
  • Scattered at 3,400' AGL
Temperatures Readings
Current 31°C / 88°F
Dewpoint 23°C / 73°F
Humidity 62%
Altimeter 30.05" Hg
Pressure 1018 hPa
Elevation 22
METAR KCLW 202015Z AUTO 30006KT 10SM SCT034 31/23 A3005 RMK AO2
Observed Flight Rules
Aug-20 @ 20:15 UTC
(14 minutes ago)
VFR
Wind Visibility
300° at 6 knots 10 miles
Clouds
  • Scattered at 3,400' AGL
Temperature Dewpoint
31°C / 88°F 23°C / 73°F
Humidity Altimeter Pressure
62% 30.05" Hg 1018 hPa